CheckWX is a tool to help pilots better visualize weather data.  It is not intended as a substitute for an official pre-flight weather briefing.

15:08:00 UTC

DNKA TAF
Kaduna Airport
Kaduna, Nigeria
TAF DNKA 230930Z 2312/2418 25007KT CAVOK BECMG 2313/2315 SCT013

Mar-23@
12:00 UTC

Mar-23 @ 12:00 UTC

Mar-23@
13:00 UTC

Mar-23 @ 13:00 UTC

TAF DNKA 230930Z 2312/2418 25007KT CAVOK

Expired

Wind
  • 250° at 7 KTS
Conditions
No significant weather
Cloud Levels
  • No significant clouds

Mar-23@
13:00 UTC

Mar-23 @ 13:00 UTC

Mar-24@
18:00 UTC

Mar-24 @ 18:00 UTC

BECMG 2313/2315 SCT013

Becoming

Becoming Conditions expected by Sat, Mar 23, 2019 @ 15:00 UTC

Wind
  • 250° at 7 KTS
Conditions
No significant weather
Cloud Levels
  • Scattered at 1,300' AGL